Time;durP1;ratioP1;P1;durP2;ratioP2;P2;SDS_P1;SDS_P2;PMS_P1;PMS_P2;Temp;Humidity;BMP_temperature;BMP_pressure;BME280_temperature;BME280_humidity;BME280_pressure;Samples;Min_cycle;Max_cycle;Signal;HPM_P1;HPM_P2
2021/08/05 00:01:49;;;;;;;4.50;2.17;;;;;;;;;;4958190;29;20070;-89
2021/08/05 00:04:15;;;;;;;5.18;2.13;;;;;;;;;;4957288;29;20039;-89
2021/08/05 00:06:42;;;;;;;5.03;2.03;;;;;;;;;;4958919;29;20031;-88
2021/08/05 00:09:08;;;;;;;3.97;2.20;;;;;;;;;;4957973;29;20035;-89
2021/08/05 00:11:34;;;;;;;4.03;2.40;;;;;;;;;;4958154;29;20358;-88
2021/08/05 00:14:00;;;;;;;4.63;2.20;;;;;;;;;;4957919;29;20035;-89
2021/08/05 00:16:27;;;;;;;3.35;2.10;;;;;;;;;;4957966;29;20050;-89
2021/08/05 00:18:53;;;;;;;4.38;2.33;;;;;;;;;;4958439;28;20019;-89
2021/08/05 00:21:20;;;;;;;4.45;2.28;;;;;;;;;;4957459;29;20365;-90
2021/08/05 00:23:47;;;;;;;8.55;2.70;;;;;;;;;;4958950;28;20023;-88
2021/08/05 00:26:14;;;;;;;3.67;2.65;;;;;;;;;;4959287;29;20031;-88
2021/08/05 00:28:41;;;;;;;4.35;2.47;;;;;;;;;;4957498;29;20094;-89
2021/08/05 00:31:08;;;;;;;6.75;2.38;;;;;;;;;;4957325;29;20480;-88
2021/08/05 00:33:34;;;;;;;6.25;3.00;;;;;;;;;;4958168;29;20024;-89
2021/08/05 00:36:01;;;;;;;3.80;2.47;;;;;;;;;;4958022;29;20404;-89
2021/08/05 00:38:27;;;;;;;4.15;2.47;;;;;;;;;;4958803;29;20023;-88
2021/08/05 00:40:53;;;;;;;6.50;2.40;;;;;;;;;;4956948;29;20035;-88
2021/08/05 00:43:20;;;;;;;4.22;2.80;;;;;;;;;;4957519;29;20043;-89
2021/08/05 00:45:46;;;;;;;4.13;2.75;;;;;;;;;;4957754;28;20171;-89
2021/08/05 00:48:13;;;;;;;4.35;2.95;;;;;;;;;;4956659;29;20027;-89
2021/08/05 00:50:39;;;;;;;4.70;2.20;;;;;;;;;;4957295;29;20032;-89
2021/08/05 00:53:06;;;;;;;3.58;2.40;;;;;;;;;;4957079;29;20122;-89
2021/08/05 00:55:32;;;;;;;4.40;2.58;;;;;;;;;;4957576;29;20023;-89
2021/08/05 00:57:59;;;;;;;4.63;2.83;;;;;;;;;;4957051;29;20094;-88
2021/08/05 01:00:25;;;;;;;5.07;2.22;;;;;;;;;;4958308;29;20380;-89
2021/08/05 01:02:57;;;;;;;5.90;2.67;;;;;;;;;;4956244;29;20564;-88
2021/08/05 01:05:27;;;;;;;4.25;3.05;;;;;;;;;;4956344;29;20031;-88
2021/08/05 01:07:58;;;;;;;4.10;2.65;;;;;;;;;;4958076;29;20031;-89
2021/08/05 01:10:29;;;;;;;7.40;3.03;;;;;;;;;;4956788;29;20440;-88
2021/08/05 01:13:11;;;;;;;4.75;3.10;;;;;;;;;;4956773;29;20024;-88
2021/08/05 01:15:38;;;;;;;4.25;2.75;;;;;;;;;;4956768;29;20055;-88
2021/08/05 01:18:09;;;;;;;5.38;2.63;;;;;;;;;;4957114;29;20036;-89
2021/08/05 01:20:36;;;;;;;6.20;3.05;;;;;;;;;;4955981;29;20090;-89
2021/08/05 01:23:20;;;;;;;3.70;2.70;;;;;;;;;;4956965;29;20078;-89
2021/08/05 01:25:47;;;;;;;6.25;2.40;;;;;;;;;;4956544;29;20054;-88
2021/08/05 01:28:14;;;;;;;5.07;2.90;;;;;;;;;;4957458;29;20106;-88
2021/08/05 01:30:41;;;;;;;4.28;2.72;;;;;;;;;;4955890;29;20035;-89
2021/08/05 01:33:08;;;;;;;5.90;2.83;;;;;;;;;;4956316;29;20027;-89
2021/08/05 01:35:35;;;;;;;5.55;2.92;;;;;;;;;;4956238;29;20087;-88
2021/08/05 01:38:02;;;;;;;6.07;3.33;;;;;;;;;;4956414;29;20054;-89
2021/08/05 01:40:31;;;;;;;7.80;3.58;;;;;;;;;;4956209;29;20087;-88
2021/08/05 01:42:58;;;;;;;5.22;3.70;;;;;;;;;;4956560;29;20030;-88
2021/08/05 01:45:25;;;;;;;6.07;3.80;;;;;;;;;;4955534;29;20031;-89
2021/08/05 01:47:51;;;;;;;5.53;3.20;;;;;;;;;;4956205;29;20065;-89
2021/08/05 01:50:18;;;;;;;8.73;4.00;;;;;;;;;;4956116;29;20039;-89
2021/08/05 01:52:45;;;;;;;6.80;3.80;;;;;;;;;;4955985;29;20031;-89
2021/08/05 01:55:12;;;;;;;4.72;3.47;;;;;;;;;;4958022;28;20054;-89
2021/08/05 01:57:39;;;;;;;8.15;3.95;;;;;;;;;;4956655;29;20027;-89
2021/08/05 02:00:06;;;;;;;5.55;3.95;;;;;;;;;;4955379;29;20030;-89
2021/08/05 02:02:33;;;;;;;8.00;3.70;;;;;;;;;;4955797;29;20035;-89
2021/08/05 02:05:02;;;;;;;7.10;4.38;;;;;;;;;;4955989;29;20469;-89
2021/08/05 02:07:31;;;;;;;5.70;3.80;;;;;;;;;;4955847;29;20531;-89
2021/08/05 02:10:03;;;;;;;5.68;3.47;;;;;;;;;;4956303;29;20035;-88
2021/08/05 02:12:44;;;;;;;6.72;3.92;;;;;;;;;;4955054;29;20385;-88
2021/08/05 02:15:11;;;;;;;5.22;3.45;;;;;;;;;;4955798;29;20034;-89
2021/08/05 02:17:39;;;;;;;6.72;3.78;;;;;;;;;;4956192;29;20389;-88
2021/08/05 02:20:06;;;;;;;6.63;4.30;;;;;;;;;;4955413;29;20050;-88
2021/08/05 02:22:33;;;;;;;6.57;3.75;;;;;;;;;;4955480;29;20123;-89
2021/08/05 02:24:59;;;;;;;5.63;4.07;;;;;;;;;;4955915;29;20031;-89
2021/08/05 02:27:26;;;;;;;7.60;3.97;;;;;;;;;;4955865;29;20027;-90
2021/08/05 02:29:53;;;;;;;7.05;4.25;;;;;;;;;;4957086;29;20043;-89
2021/08/05 02:32:19;;;;;;;7.10;3.95;;;;;;;;;;4955441;29;20082;-89
2021/08/05 02:34:46;;;;;;;5.78;4.00;;;;;;;;;;4955980;29;20090;-90
2021/08/05 02:37:13;;;;;;;5.60;4.20;;;;;;;;;;4955626;29;20019;-89
2021/08/05 02:39:40;;;;;;;8.18;4.20;;;;;;;;;;4957510;28;20038;-89
2021/08/05 02:42:08;;;;;;;6.90;3.92;;;;;;;;;;4956726;29;20019;-89
2021/08/05 02:44:35;;;;;;;9.55;4.45;;;;;;;;;;4957673;28;20020;-90
2021/08/05 02:47:01;;;;;;;6.75;4.32;;;;;;;;;;4955912;29;20042;-89
2021/08/05 02:49:29;;;;;;;7.13;3.47;;;;;;;;;;4956015;29;20563;-90
2021/08/05 02:51:56;;;;;;;6.85;4.43;;;;;;;;;;4955856;29;20424;-91
2021/08/05 02:54:22;;;;;;;6.93;3.92;;;;;;;;;;4955760;29;20031;-91
2021/08/05 02:56:49;;;;;;;6.95;4.50;;;;;;;;;;4956409;29;20118;-90
2021/08/05 02:59:15;;;;;;;7.88;4.30;;;;;;;;;;4955853;29;20105;-90
2021/08/05 03:01:41;;;;;;;5.65;3.92;;;;;;;;;;4955714;29;20027;-90
2021/08/05 03:04:08;;;;;;;7.95;4.03;;;;;;;;;;4955770;29;20110;-90
2021/08/05 03:06:35;;;;;;;9.73;4.13;;;;;;;;;;4956714;29;20111;-90
2021/08/05 03:09:01;;;;;;;5.72;3.85;;;;;;;;;;4960334;28;20067;-89
2021/08/05 03:11:27;;;;;;;7.28;4.20;;;;;;;;;;4959285;29;20077;-89
2021/08/05 03:13:53;;;;;;;8.80;4.43;;;;;;;;;;4959185;29;20035;-88
2021/08/05 03:16:20;;;;;;;6.15;4.00;;;;;;;;;;4959036;29;20027;-88
2021/08/05 03:18:46;;;;;;;8.25;4.05;;;;;;;;;;4960652;29;20027;-90
2021/08/05 03:21:12;;;;;;;11.43;4.32;;;;;;;;;;4958375;29;20027;-88
2021/08/05 03:23:39;;;;;;;7.18;4.30;;;;;;;;;;4958505;29;20031;-90
2021/08/05 03:26:05;;;;;;;5.50;3.33;;;;;;;;;;4958833;29;20519;-90
2021/08/05 03:28:32;;;;;;;6.35;4.00;;;;;;;;;;4959914;29;20027;-90
2021/08/05 03:30:58;;;;;;;5.45;3.72;;;;;;;;;;4959048;29;20046;-88
2021/08/05 03:33:24;;;;;;;7.32;4.18;;;;;;;;;;4958889;29;20031;-90
2021/08/05 03:35:51;;;;;;;6.43;4.47;;;;;;;;;;4958825;29;20032;-90
2021/08/05 03:38:17;;;;;;;8.27;4.25;;;;;;;;;;4958840;29;20129;-89
2021/08/05 03:40:44;;;;;;;6.10;4.10;;;;;;;;;;4959706;29;20031;-89
2021/08/05 03:43:10;;;;;;;11.68;4.47;;;;;;;;;;4960231;29;20035;-89
2021/08/05 03:45:36;;;;;;;6.43;3.92;;;;;;;;;;4958343;29;20029;-88
2021/08/05 03:48:03;;;;;;;8.13;3.88;;;;;;;;;;4958525;29;20213;-89
2021/08/05 03:50:29;;;;;;;10.68;4.70;;;;;;;;;;4958665;29;20038;-90
2021/08/05 03:52:56;;;;;;;6.43;4.25;;;;;;;;;;4958121;29;20035;-88
2021/08/05 03:55:22;;;;;;;7.05;4.43;;;;;;;;;;4958559;29;20118;-89
2021/08/05 03:57:48;;;;;;;7.63;4.63;;;;;;;;;;4958572;29;20031;-88
2021/08/05 04:00:16;;;;;;;7.18;4.15;;;;;;;;;;4958539;29;20034;-90
2021/08/05 04:02:43;;;;;;;6.45;4.28;;;;;;;;;;4960096;28;20023;-90
2021/08/05 04:05:09;;;;;;;6.95;4.28;;;;;;;;;;4959708;28;20106;-88
2021/08/05 04:07:35;;;;;;;7.38;4.53;;;;;;;;;;4957510;29;20033;-91
2021/08/05 04:10:02;;;;;;;8.15;4.70;;;;;;;;;;4958362;29;20040;-89
2021/08/05 04:12:28;;;;;;;8.65;4.50;;;;;;;;;;4958273;29;20027;-90
2021/08/05 04:14:54;;;;;;;10.35;4.95;;;;;;;;;;4958330;29;20123;-88
2021/08/05 04:17:20;;;;;;;7.68;4.53;;;;;;;;;;4959324;29;20027;-89
2021/08/05 04:19:46;;;;;;;7.65;4.25;;;;;;;;;;4957111;28;20055;-91
2021/08/05 04:22:12;;;;;;;6.75;4.50;;;;;;;;;;4957766;29;20440;-90
2021/08/05 04:24:39;;;;;;;6.72;4.63;;;;;;;;;;4958935;29;20027;-90
2021/08/05 04:27:05;;;;;;;6.65;4.13;;;;;;;;;;4957596;29;20110;-89
2021/08/05 04:29:32;;;;;;;6.47;4.05;;;;;;;;;;4957816;29;20547;-89
2021/08/05 04:31:58;;;;;;;8.23;4.60;;;;;;;;;;4959140;29;20008;-93
2021/08/05 04:34:25;;;;;;;8.65;4.68;;;;;;;;;;4958919;29;20027;-94
2021/08/05 04:36:51;;;;;;;6.95;4.32;;;;;;;;;;4957732;29;20031;-95
2021/08/05 04:39:19;;;;;;;8.38;5.03;;;;;;;;;;4958333;29;20031;-94
2021/08/05 04:41:46;;;;;;;7.70;4.43;;;;;;;;;;4958196;29;20027;-89
2021/08/05 04:44:12;;;;;;;8.13;4.45;;;;;;;;;;4958215;29;20038;-95
2021/08/05 04:46:39;;;;;;;6.22;4.25;;;;;;;;;;4958032;29;20027;-93
2021/08/05 04:49:05;;;;;;;7.85;4.68;;;;;;;;;;4958070;29;20034;-86
2021/08/05 04:51:32;;;;;;;7.53;4.72;;;;;;;;;;4958727;29;20043;-95
2021/08/05 04:54:02;;;;;;;8.40;4.47;;;;;;;;;;4957994;29;20397;-94
2021/08/05 04:56:30;;;;;;;9.95;5.65;;;;;;;;;;4957700;29;20043;-90
2021/08/05 04:58:56;;;;;;;7.32;4.88;;;;;;;;;;4957788;29;20051;-95
2021/08/05 05:01:22;;;;;;;8.00;5.18;;;;;;;;;;4957859;29;20105;-92
2021/08/05 05:03:49;;;;;;;6.80;4.65;;;;;;;;;;4957655;29;20392;-91
2021/08/05 05:06:16;;;;;;;10.10;4.75;;;;;;;;;;4971850;28;20015;-87
2021/08/05 05:08:42;;;;;;;8.80;4.95;;;;;;;;;;4969358;28;20086;-93
2021/08/05 05:11:09;;;;;;;9.02;4.75;;;;;;;;;;4957523;29;20070;-93
2021/08/05 05:13:53;;;;;;;8.27;4.68;;;;;;;;;;4958551;29;20491;-93
2021/08/05 05:16:19;;;;;;;11.38;4.60;;;;;;;;;;4958293;29;20027;-91
2021/08/05 05:18:49;;;;;;;11.23;5.18;;;;;;;;;;4957409;29;20047;-92
2021/08/05 05:21:15;;;;;;;6.30;3.90;;;;;;;;;;4957011;29;20118;-91
2021/08/05 05:23:42;;;;;;;7.03;4.30;;;;;;;;;;4957511;29;20023;-91
2021/08/05 05:26:08;;;;;;;8.32;4.15;;;;;;;;;;4958246;29;20034;-92
2021/08/05 05:28:35;;;;;;;11.70;4.13;;;;;;;;;;4957204;29;20031;-91
2021/08/05 05:31:01;;;;;;;8.30;4.20;;;;;;;;;;4957433;28;20038;-86
2021/08/05 05:33:28;;;;;;;8.98;4.28;;;;;;;;;;4958768;29;20027;-89
2021/08/05 05:35:54;;;;;;;7.50;4.53;;;;;;;;;;4950269;28;20031;-89
2021/08/05 05:38:20;;;;;;;8.70;4.55;;;;;;;;;;4956139;29;20035;-85
2021/08/05 05:40:47;;;;;;;7.65;3.88;;;;;;;;;;4955681;29;20023;-86
2021/08/05 05:43:13;;;;;;;7.22;4.30;;;;;;;;;;4955055;29;20035;-87
2021/08/05 05:45:40;;;;;;;6.53;4.13;;;;;;;;;;4956276;29;20023;-86
2021/08/05 05:48:07;;;;;;;8.45;4.18;;;;;;;;;;4956731;29;20033;-86
2021/08/05 05:50:35;;;;;;;6.30;3.97;;;;;;;;;;4955607;29;20042;-87
2021/08/05 05:53:01;;;;;;;7.57;4.03;;;;;;;;;;4955412;29;20116;-88
2021/08/05 05:55:28;;;;;;;8.98;4.20;;;;;;;;;;4956034;29;20464;-88
2021/08/05 05:57:54;;;;;;;6.47;4.00;;;;;;;;;;4955445;29;20501;-88
2021/08/05 06:00:20;;;;;;;8.32;4.30;;;;;;;;;;4956331;29;20035;-88
2021/08/05 06:02:46;;;;;;;6.30;4.35;;;;;;;;;;4956064;29;20167;-85
2021/08/05 06:05:13;;;;;;;7.40;3.83;;;;;;;;;;4955424;29;20023;-85
2021/08/05 06:07:49;;;;;;;5.05;3.45;;;;;;;;;;4955920;29;20035;-87
2021/08/05 06:10:17;;;;;;;5.65;3.95;;;;;;;;;;4956221;29;20031;-89
2021/08/05 06:12:43;;;;;;;5.50;3.65;;;;;;;;;;4955730;29;20408;-90
2021/08/05 06:15:12;;;;;;;5.25;3.50;;;;;;;;;;4955233;29;20059;-85
2021/08/05 06:17:41;;;;;;;5.68;3.90;;;;;;;;;;4955848;29;20023;-84
2021/08/05 06:20:08;;;;;;;5.93;3.88;;;;;;;;;;4954872;29;20488;-85
2021/08/05 06:22:34;;;;;;;6.65;3.60;;;;;;;;;;4955641;29;20038;-89
2021/08/05 06:25:00;;;;;;;8.15;4.70;;;;;;;;;;4954738;29;20114;-85
2021/08/05 06:27:26;;;;;;;9.90;4.15;;;;;;;;;;4956189;29;20031;-90
2021/08/05 06:29:53;;;;;;;5.35;3.88;;;;;;;;;;4954965;29;20031;-83
2021/08/05 06:32:19;;;;;;;6.38;3.63;;;;;;;;;;4955051;29;20419;-86
2021/08/05 06:34:45;;;;;;;6.80;3.47;;;;;;;;;;4939778;29;20518;-85
2021/08/05 06:37:11;;;;;;;7.35;3.83;;;;;;;;;;4955330;29;20376;-84
2021/08/05 06:39:37;;;;;;;6.68;4.10;;;;;;;;;;4955760;29;20038;-84
2021/08/05 06:42:04;;;;;;;7.65;3.75;;;;;;;;;;4955993;28;20032;-83
2021/08/05 06:44:34;;;;;;;9.57;3.90;;;;;;;;;;4959342;29;20059;-86
2021/08/05 06:47:02;;;;;;;9.35;3.45;;;;;;;;;;4976967;28;20030;-85
2021/08/05 06:49:28;;;;;;;9.63;3.90;;;;;;;;;;4974679;28;20457;-86
2021/08/05 06:51:54;;;;;;;6.95;4.20;;;;;;;;;;4954732;29;20122;-87
2021/08/05 06:54:20;;;;;;;9.27;4.25;;;;;;;;;;4955088;28;20031;-87
2021/08/05 06:56:46;;;;;;;6.25;3.58;;;;;;;;;;4953134;29;20047;-86
2021/08/05 06:59:13;;;;;;;10.13;4.10;;;;;;;;;;4961108;28;20042;-88
2021/08/05 07:01:39;;;;;;;7.38;3.70;;;;;;;;;;4958187;28;20019;-88
2021/08/05 07:04:06;;;;;;;11.32;4.30;;;;;;;;;;4959468;28;20120;-88
2021/08/05 07:06:32;;;;;;;5.40;3.55;;;;;;;;;;4955899;28;20110;-89
2021/08/05 07:08:58;;;;;;;5.95;3.85;;;;;;;;;;4950975;29;20440;-85
2021/08/05 07:11:24;;;;;;;7.00;4.38;;;;;;;;;;4958942;29;20027;-88
2021/08/05 07:13:50;;;;;;;6.20;3.80;;;;;;;;;;4958575;29;20047;-86
2021/08/05 07:16:16;;;;;;;10.23;4.13;;;;;;;;;;4957681;29;20034;-87
2021/08/05 07:18:43;;;;;;;11.43;3.85;;;;;;;;;;4959469;29;20122;-88
2021/08/05 07:21:15;;;;;;;6.38;3.95;;;;;;;;;;4966585;29;20015;-83
2021/08/05 07:23:41;;;;;;;6.28;3.65;;;;;;;;;;4965112;29;20104;-84
2021/08/05 07:26:10;;;;;;;5.93;3.63;;;;;;;;;;4959801;28;20106;-84
2021/08/05 07:28:36;;;;;;;7.28;3.97;;;;;;;;;;4958241;29;20034;-87
2021/08/05 07:31:02;;;;;;;5.40;3.60;;;;;;;;;;4959574;29;20035;-84
2021/08/05 07:33:28;;;;;;;6.55;3.53;;;;;;;;;;4958246;29;20059;-86
2021/08/05 07:35:54;;;;;;;6.38;3.75;;;;;;;;;;4958464;29;20493;-84
2021/08/05 07:38:21;;;;;;;6.25;3.45;;;;;;;;;;4959708;28;20384;-85
2021/08/05 07:40:47;;;;;;;14.45;3.42;;;;;;;;;;4958212;29;20030;-86
2021/08/05 07:43:13;;;;;;;5.50;3.03;;;;;;;;;;4958496;29;20035;-88
2021/08/05 07:45:39;;;;;;;5.32;4.00;;;;;;;;;;4957911;29;20468;-89
2021/08/05 07:48:05;;;;;;;6.25;4.00;;;;;;;;;;4957703;29;20024;-85
2021/08/05 07:50:31;;;;;;;5.47;3.20;;;;;;;;;;4959253;29;20035;-85
2021/08/05 07:52:57;;;;;;;6.25;3.53;;;;;;;;;;4957839;28;20023;-84
2021/08/05 07:55:25;;;;;;;6.53;3.20;;;;;;;;;;4939633;29;20035;-86
2021/08/05 07:57:51;;;;;;;7.00;3.25;;;;;;;;;;4939103;29;20028;-86
2021/08/05 08:00:17;;;;;;;6.47;2.85;;;;;;;;;;4938247;29;20036;-85
2021/08/05 08:02:44;;;;;;;6.53;3.55;;;;;;;;;;4955682;29;20031;-86
2021/08/05 08:05:14;;;;;;;5.75;3.28;;;;;;;;;;4957682;29;20090;-86
2021/08/05 08:07:41;;;;;;;7.13;3.28;;;;;;;;;;4958012;29;20027;-87
2021/08/05 08:10:10;;;;;;;6.63;3.72;;;;;;;;;;4957251;29;20476;-89
2021/08/05 08:12:36;;;;;;;5.72;3.35;;;;;;;;;;4957451;29;20027;-84
2021/08/05 08:15:02;;;;;;;9.40;3.90;;;;;;;;;;4957322;29;20047;-87
2021/08/05 08:17:29;;;;;;;4.85;3.35;;;;;;;;;;4957451;29;20082;-87
2021/08/05 08:19:55;;;;;;;6.32;3.92;;;;;;;;;;4956694;29;20055;-86
2021/08/05 08:22:21;;;;;;;5.80;3.30;;;;;;;;;;4957800;29;20366;-87
2021/08/05 08:24:47;;;;;;;5.57;3.20;;;;;;;;;;4957518;29;20058;-87
2021/08/05 08:27:13;;;;;;;4.72;2.88;;;;;;;;;;4958101;29;20118;-88
2021/08/05 08:29:39;;;;;;;5.45;3.17;;;;;;;;;;4957536;29;20046;-88
2021/08/05 08:32:05;;;;;;;3.75;2.15;;;;;;;;;;4957203;29;20082;-86
2021/08/05 08:34:32;;;;;;;4.40;2.10;;;;;;;;;;4956448;29;20035;-88
2021/08/05 08:36:59;;;;;;;2.90;1.45;;;;;;;;;;4957524;29;20027;-88
2021/08/05 08:39:25;;;;;;;2.92;1.58;;;;;;;;;;4957190;29;20023;-89
2021/08/05 08:41:51;;;;;;;3.20;1.33;;;;;;;;;;4956716;29;20392;-86
2021/08/05 08:44:20;;;;;;;2.50;1.48;;;;;;;;;;4956959;29;20113;-89
2021/08/05 08:46:48;;;;;;;2.15;1.35;;;;;;;;;;4957360;29;20033;-85
2021/08/05 08:49:15;;;;;;;2.08;1.00;;;;;;;;;;4957238;29;20441;-86
2021/08/05 08:51:45;;;;;;;3.72;0.98;;;;;;;;;;4957002;29;20027;-87
2021/08/05 08:54:11;;;;;;;2.20;1.10;;;;;;;;;;4956660;29;20086;-86
2021/08/05 08:56:47;;;;;;;2.03;1.10;;;;;;;;;;4958763;29;20031;-86
2021/08/05 08:59:17;;;;;;;3.33;1.05;;;;;;;;;;4961095;29;20094;-84
2021/08/05 09:01:44;;;;;;;2.28;1.05;;;;;;;;;;4956597;29;20066;-88
2021/08/05 09:04:12;;;;;;;2.28;0.88;;;;;;;;;;4957665;29;20032;-85
2021/08/05 09:06:38;;;;;;;2.40;0.93;;;;;;;;;;4956323;28;20049;-87
2021/08/05 09:09:08;;;;;;;1.52;0.80;;;;;;;;;;4956245;29;20039;-87
2021/08/05 09:11:35;;;;;;;2.58;1.05;;;;;;;;;;4956266;29;20078;-85
2021/08/05 09:14:01;;;;;;;1.80;1.08;;;;;;;;;;4957449;29;20058;-86
2021/08/05 09:16:31;;;;;;;2.92;0.90;;;;;;;;;;4960437;29;20038;-87
2021/08/05 09:19:08;;;;;;;1.95;0.90;;;;;;;;;;4955621;29;20023;-87
2021/08/05 09:21:35;;;;;;;1.63;0.80;;;;;;;;;;4956326;29;20031;-86
2021/08/05 09:24:07;;;;;;;1.95;1.05;;;;;;;;;;4956053;29;20050;-86
2021/08/05 09:26:36;;;;;;;1.50;0.70;;;;;;;;;;4956050;29;20031;-84
2021/08/05 09:29:08;;;;;;;3.72;0.70;;;;;;;;;;4955927;29;20035;-84
2021/08/05 09:31:35;;;;;;;1.42;0.65;;;;;;;;;;4955819;29;20451;-82
2021/08/05 09:34:08;;;;;;;1.75;0.80;;;;;;;;;;4960477;29;20023;-84
2021/08/05 09:36:35;;;;;;;1.75;0.75;;;;;;;;;;4957668;29;20031;-89
2021/08/05 09:39:01;;;;;;;1.73;0.70;;;;;;;;;;4956669;29;20028;-88
2021/08/05 09:41:28;;;;;;;1.52;0.70;;;;;;;;;;4957259;29;20376;-87
2021/08/05 09:44:01;;;;;;;1.55;0.70;;;;;;;;;;4955929;29;20404;-87
2021/08/05 09:46:32;;;;;;;1.27;0.57;;;;;;;;;;4955620;29;20051;-87
2021/08/05 09:48:58;;;;;;;1.48;0.65;;;;;;;;;;4956789;29;20495;-85
2021/08/05 09:51:25;;;;;;;3.50;0.60;;;;;;;;;;4958149;29;20035;-85
2021/08/05 09:53:54;;;;;;;0.90;0.40;;;;;;;;;;4955715;29;20115;-88
2021/08/05 09:56:20;;;;;;;1.00;0.52;;;;;;;;;;4956043;29;20110;-85
2021/08/05 09:58:50;;;;;;;1.55;0.65;;;;;;;;;;4955782;29;20595;-85
2021/08/05 10:01:23;;;;;;;1.27;0.60;;;;;;;;;;4957936;29;20061;-87
2021/08/05 10:03:49;;;;;;;1.90;0.70;;;;;;;;;;4956149;29;20023;-84
2021/08/05 10:06:15;;;;;;;1.13;0.52;;;;;;;;;;4956565;29;20392;-85
2021/08/05 10:08:43;;;;;;;0.90;0.45;;;;;;;;;;4955328;29;20031;-88
2021/08/05 10:11:09;;;;;;;1.23;0.50;;;;;;;;;;4955791;29;20476;-90
2021/08/05 10:13:36;;;;;;;0.77;0.22;;;;;;;;;;4955929;29;20098;-86
2021/08/05 10:16:03;;;;;;;1.17;0.52;;;;;;;;;;4956736;29;20058;-85
2021/08/05 10:18:31;;;;;;;0.85;0.38;;;;;;;;;;4955392;28;20043;-85
2021/08/05 10:21:02;;;;;;;1.60;0.68;;;;;;;;;;4955693;29;20073;-87
2021/08/05 10:23:28;;;;;;;0.93;0.40;;;;;;;;;;4955266;29;20031;-85
2021/08/05 10:26:05;;;;;;;1.15;0.30;;;;;;;;;;4955703;29;20027;-88
2021/08/05 10:28:31;;;;;;;4.13;0.43;;;;;;;;;;4957211;29;20031;-85
2021/08/05 10:30:58;;;;;;;0.90;0.40;;;;;;;;;;4955878;29;20090;-85
2021/08/05 10:33:25;;;;;;;1.15;0.50;;;;;;;;;;4956107;29;20034;-90
2021/08/05 10:35:52;;;;;;;1.65;0.45;;;;;;;;;;4955450;29;20118;-88
2021/08/05 10:38:22;;;;;;;1.00;0.30;;;;;;;;;;4955159;29;20054;-88
2021/08/05 10:40:49;;;;;;;1.33;0.55;;;;;;;;;;4955672;29;20023;-88
2021/08/05 10:43:16;;;;;;;1.40;0.60;;;;;;;;;;4955010;29;20039;-88
2021/08/05 10:45:42;;;;;;;1.70;0.50;;;;;;;;;;4956760;29;20034;-86
2021/08/05 10:48:09;;;;;;;1.10;0.50;;;;;;;;;;4965470;29;20042;-84
2021/08/05 10:50:40;;;;;;;1.25;0.50;;;;;;;;;;4956692;29;20040;-88
2021/08/05 10:53:07;;;;;;;1.67;0.52;;;;;;;;;;4955376;29;20114;-87
2021/08/05 10:55:34;;;;;;;1.45;0.60;;;;;;;;;;4954830;29;20114;-90
2021/08/05 10:58:09;;;;;;;1.80;0.88;;;;;;;;;;4954413;29;20122;-89
2021/08/05 11:00:50;;;;;;;1.58;0.80;;;;;;;;;;4954531;29;20038;-88
2021/08/05 11:03:40;;;;;;;1.83;0.93;;;;;;;;;;4954493;29;20441;-88
2021/08/05 11:06:26;;;;;;;2.10;1.10;;;;;;;;;;4954610;29;20061;-85
2021/08/05 11:08:53;;;;;;;2.30;1.38;;;;;;;;;;4954744;29;20031;-87
2021/08/05 11:11:25;;;;;;;3.50;1.30;;;;;;;;;;4954507;29;20038;-86
2021/08/05 11:13:51;;;;;;;2.50;1.40;;;;;;;;;;4954139;29;20024;-86
2021/08/05 11:16:18;;;;;;;3.15;1.75;;;;;;;;;;4954871;29;20031;-88
2021/08/05 11:19:04;;;;;;;4.40;2.00;;;;;;;;;;4954678;29;20388;-87
2021/08/05 11:21:30;;;;;;;3.17;1.70;;;;;;;;;;4954930;29;20035;-89
2021/08/05 11:23:57;;;;;;;2.67;1.60;;;;;;;;;;4954852;29;20023;-87
2021/08/05 11:26:24;;;;;;;5.43;1.90;;;;;;;;;;4955153;29;20027;-84
2021/08/05 11:28:52;;;;;;;2.63;1.45;;;;;;;;;;4956082;28;20039;-89
2021/08/05 11:31:24;;;;;;;2.60;1.60;;;;;;;;;;4959254;28;20050;-87
2021/08/05 11:33:50;;;;;;;1.90;1.37;;;;;;;;;;4957575;29;20027;-89
2021/08/05 11:36:25;;;;;;;2.35;1.25;;;;;;;;;;4958716;29;20047;-85
2021/08/05 11:38:59;;;;;;;2.25;1.27;;;;;;;;;;4958574;29;20022;-85
2021/08/05 11:41:40;;;;;;;2.00;1.20;;;;;;;;;;4958165;29;20034;-84
2021/08/05 11:44:22;;;;;;;3.63;1.10;;;;;;;;;;4958193;29;20511;-89
2021/08/05 11:47:11;;;;;;;3.47;1.00;;;;;;;;;;4958074;29;20038;-88
2021/08/05 11:49:42;;;;;;;2.30;0.98;;;;;;;;;;4957686;29;20130;-87
2021/08/05 11:52:18;;;;;;;2.30;1.20;;;;;;;;;;4958966;29;20027;-89
2021/08/05 11:54:49;;;;;;;2.17;1.00;;;;;;;;;;4958176;29;20444;-89
2021/08/05 11:57:16;;;;;;;1.95;1.10;;;;;;;;;;4958340;29;20035;-87
2021/08/05 11:59:44;;;;;;;1.88;0.93;;;;;;;;;;4957924;29;20027;-86
2021/08/05 12:02:12;;;;;;;1.30;0.60;;;;;;;;;;4957836;29;20038;-87
2021/08/05 12:04:38;;;;;;;2.40;0.70;;;;;;;;;;4957690;29;20038;-90
2021/08/05 12:07:17;;;;;;;2.00;0.65;;;;;;;;;;4957735;29;20170;-87
2021/08/05 12:09:43;;;;;;;1.08;0.52;;;;;;;;;;4956992;29;20369;-89
2021/08/05 12:12:09;;;;;;;3.22;0.50;;;;;;;;;;4957468;29;20473;-86
2021/08/05 12:14:35;;;;;;;1.20;0.40;;;;;;;;;;4957494;29;20020;-90
2021/08/05 12:17:02;;;;;;;1.05;0.40;;;;;;;;;;4957719;29;20031;-87
2021/08/05 12:19:32;;;;;;;1.38;0.40;;;;;;;;;;4957543;29;20047;-91
2021/08/05 12:21:58;;;;;;;0.40;0.22;;;;;;;;;;4957428;29;20027;-90
2021/08/05 12:24:26;;;;;;;0.60;0.28;;;;;;;;;;4957785;29;20070;-85
2021/08/05 12:26:59;;;;;;;0.80;0.30;;;;;;;;;;4956831;29;20031;-88
2021/08/05 12:29:25;;;;;;;0.70;0.38;;;;;;;;;;4957379;29;20126;-91
2021/08/05 12:31:51;;;;;;;2.67;0.43;;;;;;;;;;4957004;29;20038;-84
2021/08/05 12:34:19;;;;;;;0.70;0.30;;;;;;;;;;4957135;29;20031;-89
2021/08/05 12:36:45;;;;;;;0.80;0.30;;;;;;;;;;4957347;29;20047;-88
2021/08/05 12:39:11;;;;;;;0.65;0.30;;;;;;;;;;4956775;29;20038;-87
2021/08/05 12:41:49;;;;;;;0.82;0.30;;;;;;;;;;4955450;28;20043;-88
2021/08/05 12:44:16;;;;;;;1.40;0.30;;;;;;;;;;4956516;29;20027;-88
2021/08/05 12:46:47;;;;;;;3.15;0.40;;;;;;;;;;4956833;29;20477;-88
2021/08/05 12:49:13;;;;;;;0.90;0.40;;;;;;;;;;4956918;29;20031;-86
2021/08/05 12:51:40;;;;;;;0.73;0.30;;;;;;;;;;4956292;29;20038;-88
2021/08/05 12:54:19;;;;;;;0.73;0.40;;;;;;;;;;4956383;29;20461;-85
2021/08/05 12:56:46;;;;;;;0.68;0.30;;;;;;;;;;4956554;29;20480;-87
2021/08/05 12:59:12;;;;;;;0.75;0.40;;;;;;;;;;4956851;29;20074;-86
2021/08/05 13:01:39;;;;;;;3.20;0.40;;;;;;;;;;4956572;29;20031;-85
2021/08/05 13:04:20;;;;;;;0.70;0.35;;;;;;;;;;4956329;29;20069;-88
2021/08/05 13:06:52;;;;;;;0.70;0.30;;;;;;;;;;4955946;29;20031;-89
2021/08/05 13:09:18;;;;;;;0.60;0.30;;;;;;;;;;4956552;29;20054;-89
2021/08/05 13:11:45;;;;;;;1.00;0.43;;;;;;;;;;4956804;29;20035;-88
2021/08/05 13:14:30;;;;;;;1.08;0.50;;;;;;;;;;4956335;29;20455;-88
2021/08/05 13:17:06;;;;;;;1.85;0.40;;;;;;;;;;4957294;29;20091;-88
2021/08/05 13:19:33;;;;;;;1.30;0.60;;;;;;;;;;4956241;29;20070;-86
2021/08/05 13:21:59;;;;;;;1.67;0.50;;;;;;;;;;4956661;29;20387;-88
2021/08/05 13:24:25;;;;;;;4.93;0.65;;;;;;;;;;4957132;29;20143;-89
2021/08/05 13:26:56;;;;;;;0.77;0.40;;;;;;;;;;4956261;29;20019;-89
2021/08/05 13:29:42;;;;;;;1.20;0.40;;;;;;;;;;4955658;29;20039;-86
2021/08/05 13:32:16;;;;;;;3.17;0.40;;;;;;;;;;4954813;29;20034;-87
2021/08/05 13:35:01;;;;;;;1.05;0.40;;;;;;;;;;4955348;29;20117;-88
2021/08/05 13:37:28;;;;;;;0.85;0.32;;;;;;;;;;4956199;28;20495;-84
2021/08/05 13:39:56;;;;;;;0.93;0.38;;;;;;;;;;4954929;29;20055;-84
2021/08/05 13:42:23;;;;;;;0.70;0.25;;;;;;;;;;4955314;29;20027;-85
2021/08/05 13:44:49;;;;;;;0.73;0.20;;;;;;;;;;4954999;29;20499;-84
2021/08/05 13:47:16;;;;;;;0.55;0.30;;;;;;;;;;4956479;29;20102;-84
2021/08/05 13:49:43;;;;;;;2.17;0.20;;;;;;;;;;4955263;29;20035;-89
2021/08/05 13:52:09;;;;;;;0.40;0.20;;;;;;;;;;4955051;28;20083;-83
2021/08/05 13:54:36;;;;;;;2.85;0.28;;;;;;;;;;4955015;29;20035;-83
2021/08/05 13:57:02;;;;;;;1.05;0.17;;;;;;;;;;4955273;29;20103;-85
2021/08/05 13:59:29;;;;;;;0.68;0.05;;;;;;;;;;4956562;29;20027;-84
2021/08/05 14:01:55;;;;;;;0.77;0.10;;;;;;;;;;4955235;29;20031;-85
2021/08/05 14:04:22;;;;;;;0.50;0.10;;;;;;;;;;4956498;29;20085;-89
2021/08/05 14:06:48;;;;;;;0.17;0.03;;;;;;;;;;4956100;29;20064;-88
2021/08/05 14:09:15;;;;;;;0.25;0.10;;;;;;;;;;4956188;29;20107;-90
2021/08/05 14:11:41;;;;;;;0.63;0.08;;;;;;;;;;4954363;28;20027;-83
2021/08/05 14:14:10;;;;;;;0.10;0.00;;;;;;;;;;4946371;29;20034;-86
2021/08/05 14:16:37;;;;;;;0.40;0.10;;;;;;;;;;4955172;29;20034;-85
2021/08/05 14:19:03;;;;;;;1.08;0.10;;;;;;;;;;4954998;29;20047;-87
2021/08/05 14:21:30;;;;;;;1.30;0.20;;;;;;;;;;4955427;29;20082;-86
2021/08/05 14:23:57;;;;;;;2.03;0.10;;;;;;;;;;4954751;29;20457;-84
2021/08/05 14:26:23;;;;;;;0.15;0.10;;;;;;;;;;4954981;29;20063;-85
2021/08/05 14:28:49;;;;;;;0.43;0.10;;;;;;;;;;4954991;29;20054;-84
2021/08/05 14:31:15;;;;;;;0.40;0.10;;;;;;;;;;4956246;29;20062;-85
2021/08/05 14:33:41;;;;;;;0.30;0.10;;;;;;;;;;4954772;29;20028;-84
2021/08/05 14:36:07;;;;;;;0.10;0.10;;;;;;;;;;4954949;29;20436;-87
2021/08/05 14:38:33;;;;;;;0.35;0.10;;;;;;;;;;4954492;29;20027;-85
2021/08/05 14:40:59;;;;;;;1.05;0.10;;;;;;;;;;4954951;29;20023;-86
2021/08/05 14:43:26;;;;;;;0.43;0.10;;;;;;;;;;4954148;29;20063;-88
2021/08/05 14:45:52;;;;;;;0.50;0.30;;;;;;;;;;4954995;29;20388;-89
2021/08/05 14:48:18;;;;;;;4.43;0.30;;;;;;;;;;4954805;29;20081;-87